sensor_id;sensor_type;location;lat;lon;timestamp;temperature;humidity
423;DHT22;198;48.752;9.180;2022-07-30T00:01:10;18.20;99.90
423;DHT22;198;48.752;9.180;2022-07-30T00:03:35;18.10;99.90
423;DHT22;198;48.752;9.180;2022-07-30T00:06:01;18.10;99.90
423;DHT22;198;48.752;9.180;2022-07-30T00:08:26;18.10;99.90
423;DHT22;198;48.752;9.180;2022-07-30T00:10:52;18.00;99.90
423;DHT22;198;48.752;9.180;2022-07-30T00:13:17;17.90;99.90
423;DHT22;198;48.752;9.180;2022-07-30T00:15:43;17.90;99.90
423;DHT22;198;48.752;9.180;2022-07-30T00:18:09;17.90;99.90
423;DHT22;198;48.752;9.180;2022-07-30T00:20:34;17.90;99.90
423;DHT22;198;48.752;9.180;2022-07-30T00:23:03;17.90;99.90
423;DHT22;198;48.752;9.180;2022-07-30T00:25:29;18.00;99.90
423;DHT22;198;48.752;9.180;2022-07-30T00:27:55;18.00;99.90
423;DHT22;198;48.752;9.180;2022-07-30T00:30:20;18.00;99.90
423;DHT22;198;48.752;9.180;2022-07-30T00:32:46;18.10;99.90
423;DHT22;198;48.752;9.180;2022-07-30T00:35:12;18.10;99.90
423;DHT22;198;48.752;9.180;2022-07-30T00:37:37;18.10;99.90
423;DHT22;198;48.752;9.180;2022-07-30T00:40:04;18.20;99.90
423;DHT22;198;48.752;9.180;2022-07-30T00:42:40;18.20;99.90
423;DHT22;198;48.752;9.180;2022-07-30T00:45:06;18.20;99.90
423;DHT22;198;48.752;9.180;2022-07-30T00:47:33;18.20;99.90
423;DHT22;198;48.752;9.180;2022-07-30T00:49:58;18.30;99.90
423;DHT22;198;48.752;9.180;2022-07-30T00:52:24;18.30;99.90
423;DHT22;198;48.752;9.180;2022-07-30T00:54:49;18.30;99.90
423;DHT22;198;48.752;9.180;2022-07-30T00:57:15;18.40;99.90
423;DHT22;198;48.752;9.180;2022-07-30T00:59:40;18.50;99.90
423;DHT22;198;48.752;9.180;2022-07-30T01:02:06;18.60;99.90
423;DHT22;198;48.752;9.180;2022-07-30T01:04:31;18.60;99.90
423;DHT22;198;48.752;9.180;2022-07-30T01:06:57;18.70;99.90
423;DHT22;198;48.752;9.180;2022-07-30T01:09:22;18.70;99.90
423;DHT22;198;48.752;9.180;2022-07-30T01:11:48;18.70;99.90
423;DHT22;198;48.752;9.180;2022-07-30T01:14:14;18.70;99.90
423;DHT22;198;48.752;9.180;2022-07-30T01:16:41;18.70;99.90
423;DHT22;198;48.752;9.180;2022-07-30T01:19:14;18.70;99.90
423;DHT22;198;48.752;9.180;2022-07-30T01:22:08;18.60;99.90
423;DHT22;198;48.752;9.180;2022-07-30T01:24:39;18.60;99.90
423;DHT22;198;48.752;9.180;2022-07-30T01:27:06;18.60;99.90
423;DHT22;198;48.752;9.180;2022-07-30T01:29:33;18.50;99.90
423;DHT22;198;48.752;9.180;2022-07-30T01:32:00;18.50;99.90
423;DHT22;198;48.752;9.180;2022-07-30T01:34:29;18.50;99.90
423;DHT22;198;48.752;9.180;2022-07-30T01:36:57;18.40;99.90
423;DHT22;198;48.752;9.180;2022-07-30T01:39:25;18.40;99.90
423;DHT22;198;48.752;9.180;2022-07-30T01:41:52;18.40;99.90
423;DHT22;198;48.752;9.180;2022-07-30T01:44:19;18.40;99.90
423;DHT22;198;48.752;9.180;2022-07-30T01:46:46;18.40;99.90
423;DHT22;198;48.752;9.180;2022-07-30T01:49:12;18.40;99.90
423;DHT22;198;48.752;9.180;2022-07-30T01:51:41;18.40;99.90
423;DHT22;198;48.752;9.180;2022-07-30T01:54:08;18.40;99.90
423;DHT22;198;48.752;9.180;2022-07-30T01:56:36;18.40;99.90
423;DHT22;198;48.752;9.180;2022-07-30T01:59:04;18.40;99.90
423;DHT22;198;48.752;9.180;2022-07-30T02:01:31;18.40;99.90
423;DHT22;198;48.752;9.180;2022-07-30T02:03:59;18.40;99.90
423;DHT22;198;48.752;9.180;2022-07-30T02:06:33;18.30;99.90
423;DHT22;198;48.752;9.180;2022-07-30T02:09:02;18.30;99.90
423;DHT22;198;48.752;9.180;2022-07-30T02:11:30;18.30;99.90
423;DHT22;198;48.752;9.180;2022-07-30T02:14:23;18.30;99.90
423;DHT22;198;48.752;9.180;2022-07-30T02:16:53;18.20;99.90
423;DHT22;198;48.752;9.180;2022-07-30T02:19:21;18.20;99.90
423;DHT22;198;48.752;9.180;2022-07-30T02:21:57;18.10;99.90
423;DHT22;198;48.752;9.180;2022-07-30T02:24:27;18.10;99.90
423;DHT22;198;48.752;9.180;2022-07-30T02:26:58;18.00;99.90
423;DHT22;198;48.752;9.180;2022-07-30T02:29:25;18.00;99.90
423;DHT22;198;48.752;9.180;2022-07-30T02:31:53;17.90;99.90
423;DHT22;198;48.752;9.180;2022-07-30T02:34:22;17.90;99.90
423;DHT22;198;48.752;9.180;2022-07-30T02:36:48;17.80;99.90
423;DHT22;198;48.752;9.180;2022-07-30T02:39:16;17.70;99.90
423;DHT22;198;48.752;9.180;2022-07-30T02:41:44;17.70;99.90
423;DHT22;198;48.752;9.180;2022-07-30T02:44:10;17.70;99.90
423;DHT22;198;48.752;9.180;2022-07-30T02:46:36;17.60;99.90
423;DHT22;198;48.752;9.180;2022-07-30T02:49:04;17.60;99.90
423;DHT22;198;48.752;9.180;2022-07-30T02:51:31;17.60;99.90
423;DHT22;198;48.752;9.180;2022-07-30T02:53:58;17.50;99.90
423;DHT22;198;48.752;9.180;2022-07-30T02:56:25;17.60;99.90
423;DHT22;198;48.752;9.180;2022-07-30T02:58:52;17.50;99.90
423;DHT22;198;48.752;9.180;2022-07-30T03:01:20;17.50;99.90
423;DHT22;198;48.752;9.180;2022-07-30T03:03:47;17.50;99.90
423;DHT22;198;48.752;9.180;2022-07-30T03:06:14;17.50;99.90
423;DHT22;198;48.752;9.180;2022-07-30T03:08:43;17.50;99.90
423;DHT22;198;48.752;9.180;2022-07-30T03:11:13;17.50;99.90
423;DHT22;198;48.752;9.180;2022-07-30T03:13:41;17.40;99.90
423;DHT22;198;48.752;9.180;2022-07-30T03:16:09;17.40;99.90
423;DHT22;198;48.752;9.180;2022-07-30T03:18:36;17.40;99.90
423;DHT22;198;48.752;9.180;2022-07-30T03:21:05;17.40;99.90
423;DHT22;198;48.752;9.180;2022-07-30T03:23:33;17.40;99.90
423;DHT22;198;48.752;9.180;2022-07-30T03:26:02;17.40;99.90
423;DHT22;198;48.752;9.180;2022-07-30T03:28:30;17.30;99.90
423;DHT22;198;48.752;9.180;2022-07-30T03:30:57;17.30;99.90
423;DHT22;198;48.752;9.180;2022-07-30T03:33:23;17.30;99.90
423;DHT22;198;48.752;9.180;2022-07-30T03:35:50;17.20;99.90
423;DHT22;198;48.752;9.180;2022-07-30T03:38:17;17.20;99.90
423;DHT22;198;48.752;9.180;2022-07-30T03:40:44;17.20;99.90
423;DHT22;198;48.752;9.180;2022-07-30T03:43:11;17.20;99.90
423;DHT22;198;48.752;9.180;2022-07-30T03:45:39;17.20;99.90
423;DHT22;198;48.752;9.180;2022-07-30T03:48:07;17.10;99.90
423;DHT22;198;48.752;9.180;2022-07-30T03:50:34;17.10;99.90
423;DHT22;198;48.752;9.180;2022-07-30T03:53:03;17.10;99.90
423;DHT22;198;48.752;9.180;2022-07-30T03:55:29;17.10;99.90
423;DHT22;198;48.752;9.180;2022-07-30T03:57:55;17.10;99.90
423;DHT22;198;48.752;9.180;2022-07-30T04:00:21;17.10;99.90
423;DHT22;198;48.752;9.180;2022-07-30T04:02:46;17.20;99.90
423;DHT22;198;48.752;9.180;2022-07-30T04:05:13;17.20;99.90
423;DHT22;198;48.752;9.180;2022-07-30T04:07:38;17.20;99.90
423;DHT22;198;48.752;9.180;2022-07-30T04:10:04;17.20;99.90
423;DHT22;198;48.752;9.180;2022-07-30T04:12:30;17.20;99.90
423;DHT22;198;48.752;9.180;2022-07-30T04:14:56;17.30;99.90
423;DHT22;198;48.752;9.180;2022-07-30T04:17:26;17.30;99.90
423;DHT22;198;48.752;9.180;2022-07-30T04:19:59;17.30;99.90
423;DHT22;198;48.752;9.180;2022-07-30T04:22:35;17.30;99.90
423;DHT22;198;48.752;9.180;2022-07-30T04:25:04;17.30;99.90
423;DHT22;198;48.752;9.180;2022-07-30T04:27:31;17.30;99.90
423;DHT22;198;48.752;9.180;2022-07-30T04:29:58;17.30;99.90
423;DHT22;198;48.752;9.180;2022-07-30T04:32:24;17.20;99.90
423;DHT22;198;48.752;9.180;2022-07-30T04:34:53;17.30;99.90
423;DHT22;198;48.752;9.180;2022-07-30T04:37:21;17.20;99.90
423;DHT22;198;48.752;9.180;2022-07-30T04:39:47;17.30;99.90
423;DHT22;198;48.752;9.180;2022-07-30T04:42:26;17.20;99.90
423;DHT22;198;48.752;9.180;2022-07-30T04:44:52;17.20;99.90
423;DHT22;198;48.752;9.180;2022-07-30T04:47:18;17.30;99.90
423;DHT22;198;48.752;9.180;2022-07-30T04:49:44;17.30;99.90
423;DHT22;198;48.752;9.180;2022-07-30T04:52:11;17.30;99.90
423;DHT22;198;48.752;9.180;2022-07-30T04:55:05;17.30;99.90
423;DHT22;198;48.752;9.180;2022-07-30T04:57:30;17.40;99.90
423;DHT22;198;48.752;9.180;2022-07-30T04:59:56;17.30;99.90
423;DHT22;198;48.752;9.180;2022-07-30T05:02:24;17.30;99.90
423;DHT22;198;48.752;9.180;2022-07-30T05:04:51;17.40;99.90
423;DHT22;198;48.752;9.180;2022-07-30T05:07:18;17.40;99.90
423;DHT22;198;48.752;9.180;2022-07-30T05:09:46;17.50;99.90
423;DHT22;198;48.752;9.180;2022-07-30T05:12:12;17.50;99.90
423;DHT22;198;48.752;9.180;2022-07-30T05:14:37;17.60;99.90
423;DHT22;198;48.752;9.180;2022-07-30T05:17:03;17.60;99.90
423;DHT22;198;48.752;9.180;2022-07-30T05:19:28;17.60;99.90
423;DHT22;198;48.752;9.180;2022-07-30T05:21:54;17.60;99.90
423;DHT22;198;48.752;9.180;2022-07-30T05:24:19;17.70;99.90
423;DHT22;198;48.752;9.180;2022-07-30T05:26:46;17.70;99.90
423;DHT22;198;48.752;9.180;2022-07-30T05:29:12;17.80;99.90
423;DHT22;198;48.752;9.180;2022-07-30T05:31:38;17.80;99.90
423;DHT22;198;48.752;9.180;2022-07-30T05:34:04;17.80;99.90
423;DHT22;198;48.752;9.180;2022-07-30T05:36:30;17.90;99.90
423;DHT22;198;48.752;9.180;2022-07-30T05:38:55;17.90;99.90
423;DHT22;198;48.752;9.180;2022-07-30T05:41:21;18.00;99.90
423;DHT22;198;48.752;9.180;2022-07-30T05:43:46;18.00;99.90
423;DHT22;198;48.752;9.180;2022-07-30T05:46:12;18.00;99.90
423;DHT22;198;48.752;9.180;2022-07-30T05:48:37;18.10;99.90
423;DHT22;198;48.752;9.180;2022-07-30T05:51:05;18.10;99.90
423;DHT22;198;48.752;9.180;2022-07-30T05:53:30;18.10;99.90
423;DHT22;198;48.752;9.180;2022-07-30T05:55:56;18.20;99.90
423;DHT22;198;48.752;9.180;2022-07-30T05:58:22;18.20;99.90
423;DHT22;198;48.752;9.180;2022-07-30T06:00:48;18.30;99.90
423;DHT22;198;48.752;9.180;2022-07-30T06:03:14;18.40;99.90
423;DHT22;198;48.752;9.180;2022-07-30T06:05:39;18.50;99.90
423;DHT22;198;48.752;9.180;2022-07-30T06:08:05;18.50;99.90
423;DHT22;198;48.752;9.180;2022-07-30T06:10:31;18.60;99.90
423;DHT22;198;48.752;9.180;2022-07-30T06:12:56;18.60;99.90
423;DHT22;198;48.752;9.180;2022-07-30T06:15:22;18.70;99.90
423;DHT22;198;48.752;9.180;2022-07-30T06:17:48;18.80;99.90
423;DHT22;198;48.752;9.180;2022-07-30T06:20:15;18.80;99.90
423;DHT22;198;48.752;9.180;2022-07-30T06:22:41;18.90;99.90
423;DHT22;198;48.752;9.180;2022-07-30T06:25:07;19.00;99.90
423;DHT22;198;48.752;9.180;2022-07-30T06:27:33;19.00;99.90
423;DHT22;198;48.752;9.180;2022-07-30T06:30:01;19.10;99.90
423;DHT22;198;48.752;9.180;2022-07-30T06:32:27;19.30;99.90
423;DHT22;198;48.752;9.180;2022-07-30T06:34:52;19.30;99.90
423;DHT22;198;48.752;9.180;2022-07-30T06:37:18;19.40;99.90
423;DHT22;198;48.752;9.180;2022-07-30T06:39:43;19.50;99.90
423;DHT22;198;48.752;9.180;2022-07-30T06:42:09;19.60;99.90
423;DHT22;198;48.752;9.180;2022-07-30T06:44:35;19.70;99.90
423;DHT22;198;48.752;9.180;2022-07-30T06:47:00;19.80;99.90
423;DHT22;198;48.752;9.180;2022-07-30T06:49:26;19.80;99.90
423;DHT22;198;48.752;9.180;2022-07-30T06:51:51;19.80;99.90
423;DHT22;198;48.752;9.180;2022-07-30T06:54:17;19.80;99.90
423;DHT22;198;48.752;9.180;2022-07-30T06:56:43;20.00;99.90
423;DHT22;198;48.752;9.180;2022-07-30T06:59:08;20.10;99.90
423;DHT22;198;48.752;9.180;2022-07-30T07:01:34;20.20;99.90
423;DHT22;198;48.752;9.180;2022-07-30T07:03:59;20.30;99.90
423;DHT22;198;48.752;9.180;2022-07-30T07:06:25;20.30;99.90
423;DHT22;198;48.752;9.180;2022-07-30T07:08:50;20.40;99.90
423;DHT22;198;48.752;9.180;2022-07-30T07:11:16;20.50;99.90
423;DHT22;198;48.752;9.180;2022-07-30T07:13:41;20.60;99.90
423;DHT22;198;48.752;9.180;2022-07-30T07:16:07;20.60;99.90
423;DHT22;198;48.752;9.180;2022-07-30T07:18:32;20.80;99.90
423;DHT22;198;48.752;9.180;2022-07-30T07:20:58;20.90;99.90
423;DHT22;198;48.752;9.180;2022-07-30T07:23:23;20.90;99.90
423;DHT22;198;48.752;9.180;2022-07-30T07:25:49;21.10;99.90
423;DHT22;198;48.752;9.180;2022-07-30T07:28:14;21.10;99.90
423;DHT22;198;48.752;9.180;2022-07-30T07:30:40;21.30;99.90
423;DHT22;198;48.752;9.180;2022-07-30T07:33:07;21.40;99.90
423;DHT22;198;48.752;9.180;2022-07-30T07:35:33;21.40;99.90
423;DHT22;198;48.752;9.180;2022-07-30T07:37:58;21.50;99.90
423;DHT22;198;48.752;9.180;2022-07-30T07:40:24;21.50;99.90
423;DHT22;198;48.752;9.180;2022-07-30T07:42:49;21.50;98.10
423;DHT22;198;48.752;9.180;2022-07-30T07:45:15;21.60;98.40
423;DHT22;198;48.752;9.180;2022-07-30T07:47:48;21.60;97.80
423;DHT22;198;48.752;9.180;2022-07-30T07:50:15;21.70;95.70
423;DHT22;198;48.752;9.180;2022-07-30T07:52:41;21.80;95.60
423;DHT22;198;48.752;9.180;2022-07-30T07:55:07;21.80;92.80
423;DHT22;198;48.752;9.180;2022-07-30T07:57:43;21.90;94.10
423;DHT22;198;48.752;9.180;2022-07-30T08:00:12;22.00;94.30
423;DHT22;198;48.752;9.180;2022-07-30T08:02:39;22.10;93.00
423;DHT22;198;48.752;9.180;2022-07-30T08:05:05;22.30;92.00
423;DHT22;198;48.752;9.180;2022-07-30T08:07:31;22.30;91.00
423;DHT22;198;48.752;9.180;2022-07-30T08:09:57;22.30;91.90
423;DHT22;198;48.752;9.180;2022-07-30T08:12:23;22.50;91.00
423;DHT22;198;48.752;9.180;2022-07-30T08:14:49;22.60;85.30
423;DHT22;198;48.752;9.180;2022-07-30T08:17:14;22.70;91.00
423;DHT22;198;48.752;9.180;2022-07-30T08:19:40;22.90;88.10
423;DHT22;198;48.752;9.180;2022-07-30T08:22:06;23.10;89.40
423;DHT22;198;48.752;9.180;2022-07-30T08:24:31;23.30;84.20
423;DHT22;198;48.752;9.180;2022-07-30T08:26:57;23.50;84.80
423;DHT22;198;48.752;9.180;2022-07-30T08:29:22;23.60;83.20
423;DHT22;198;48.752;9.180;2022-07-30T08:31:48;23.80;83.30
423;DHT22;198;48.752;9.180;2022-07-30T08:34:14;23.90;79.80
423;DHT22;198;48.752;9.180;2022-07-30T08:36:40;23.90;77.50
423;DHT22;198;48.752;9.180;2022-07-30T08:39:06;24.10;78.40
423;DHT22;198;48.752;9.180;2022-07-30T08:41:31;24.30;77.60
423;DHT22;198;48.752;9.180;2022-07-30T08:43:59;24.50;73.20
423;DHT22;198;48.752;9.180;2022-07-30T08:46:28;24.80;72.40
423;DHT22;198;48.752;9.180;2022-07-30T08:48:55;25.00;70.70
423;DHT22;198;48.752;9.180;2022-07-30T08:51:22;25.20;64.70
423;DHT22;198;48.752;9.180;2022-07-30T08:53:48;24.90;64.00
423;DHT22;198;48.752;9.180;2022-07-30T08:56:15;25.10;68.10
423;DHT22;198;48.752;9.180;2022-07-30T08:58:40;25.00;64.80
423;DHT22;198;48.752;9.180;2022-07-30T09:01:06;25.10;62.90
423;DHT22;198;48.752;9.180;2022-07-30T09:03:32;25.10;62.30
423;DHT22;198;48.752;9.180;2022-07-30T09:06:00;25.00;61.50
423;DHT22;198;48.752;9.180;2022-07-30T09:08:26;25.10;61.40
423;DHT22;198;48.752;9.180;2022-07-30T09:10:52;25.20;60.90
423;DHT22;198;48.752;9.180;2022-07-30T09:13:36;25.30;61.40
423;DHT22;198;48.752;9.180;2022-07-30T09:16:06;25.30;57.90
423;DHT22;198;48.752;9.180;2022-07-30T09:18:36;25.30;57.70
423;DHT22;198;48.752;9.180;2022-07-30T09:24:05;25.90;61.70
423;DHT22;198;48.752;9.180;2022-07-30T09:27:00;26.30;59.00
423;DHT22;198;48.752;9.180;2022-07-30T09:29:28;26.30;57.00
423;DHT22;198;48.752;9.180;2022-07-30T09:32:02;26.20;57.50
423;DHT22;198;48.752;9.180;2022-07-30T09:34:38;26.00;56.60
423;DHT22;198;48.752;9.180;2022-07-30T09:39:36;26.20;56.90
423;DHT22;198;48.752;9.180;2022-07-30T09:42:03;26.10;54.20
423;DHT22;198;48.752;9.180;2022-07-30T09:44:40;25.90;54.50
423;DHT22;198;48.752;9.180;2022-07-30T09:47:06;26.10;56.70
423;DHT22;198;48.752;9.180;2022-07-30T09:49:32;26.30;54.70
423;DHT22;198;48.752;9.180;2022-07-30T09:51:57;26.60;53.60
423;DHT22;198;48.752;9.180;2022-07-30T09:54:24;26.90;54.40
423;DHT22;198;48.752;9.180;2022-07-30T09:57:08;27.40;52.90
423;DHT22;198;48.752;9.180;2022-07-30T09:59:34;28.10;49.90
423;DHT22;198;48.752;9.180;2022-07-30T10:01:59;28.50;48.40
423;DHT22;198;48.752;9.180;2022-07-30T10:04:27;29.40;47.20
423;DHT22;198;48.752;9.180;2022-07-30T10:06:55;29.90;45.10
423;DHT22;198;48.752;9.180;2022-07-30T10:09:29;31.40;43.10
423;DHT22;198;48.752;9.180;2022-07-30T10:12:00;32.40;42.00
423;DHT22;198;48.752;9.180;2022-07-30T10:14:34;32.80;40.10
423;DHT22;198;48.752;9.180;2022-07-30T10:17:01;32.70;39.00
423;DHT22;198;48.752;9.180;2022-07-30T10:19:26;33.60;37.50
423;DHT22;198;48.752;9.180;2022-07-30T10:21:52;34.80;35.60
423;DHT22;198;48.752;9.180;2022-07-30T10:24:21;35.90;34.10
423;DHT22;198;48.752;9.180;2022-07-30T10:26:48;35.40;33.80
423;DHT22;198;48.752;9.180;2022-07-30T10:29:16;36.60;32.70
423;DHT22;198;48.752;9.180;2022-07-30T10:31:43;36.20;32.20
423;DHT22;198;48.752;9.180;2022-07-30T10:34:08;36.00;32.10
423;DHT22;198;48.752;9.180;2022-07-30T10:36:35;36.80;33.70
423;DHT22;198;48.752;9.180;2022-07-30T10:39:01;37.90;30.50
423;DHT22;198;48.752;9.180;2022-07-30T10:41:58;36.40;30.90
423;DHT22;198;48.752;9.180;2022-07-30T10:47:13;34.30;33.60
423;DHT22;198;48.752;9.180;2022-07-30T10:49:39;35.60;31.50
423;DHT22;198;48.752;9.180;2022-07-30T10:52:05;38.00;31.80
423;DHT22;198;48.752;9.180;2022-07-30T10:54:37;37.30;29.80
423;DHT22;198;48.752;9.180;2022-07-30T10:57:15;35.00;31.20
423;DHT22;198;48.752;9.180;2022-07-30T11:02:24;35.30;31.40
423;DHT22;198;48.752;9.180;2022-07-30T11:04:50;37.30;31.40
423;DHT22;198;48.752;9.180;2022-07-30T11:07:35;40.00;28.40
423;DHT22;198;48.752;9.180;2022-07-30T11:10:01;40.10;28.00
423;DHT22;198;48.752;9.180;2022-07-30T11:15:08;40.40;26.60
423;DHT22;198;48.752;9.180;2022-07-30T11:17:57;39.50;26.90
423;DHT22;198;48.752;9.180;2022-07-30T11:20:22;37.50;27.50
423;DHT22;198;48.752;9.180;2022-07-30T11:22:48;37.90;29.50
423;DHT22;198;48.752;9.180;2022-07-30T11:27:51;44.00;26.30
423;DHT22;198;48.752;9.180;2022-07-30T11:32:53;46.00;23.00
423;DHT22;198;48.752;9.180;2022-07-30T11:38:05;40.80;25.90
423;DHT22;198;48.752;9.180;2022-07-30T11:43:28;39.60;26.00
423;DHT22;198;48.752;9.180;2022-07-30T11:46:09;38.60;26.20
423;DHT22;198;48.752;9.180;2022-07-30T11:48:37;38.70;27.00
423;DHT22;198;48.752;9.180;2022-07-30T11:51:03;40.10;26.80
423;DHT22;198;48.752;9.180;2022-07-30T11:53:29;40.70;26.10
423;DHT22;198;48.752;9.180;2022-07-30T11:55:57;41.80;25.80
423;DHT22;198;48.752;9.180;2022-07-30T11:58:30;42.00;25.60
423;DHT22;198;48.752;9.180;2022-07-30T12:00:58;40.10;25.60
423;DHT22;198;48.752;9.180;2022-07-30T12:03:26;40.00;26.20
423;DHT22;198;48.752;9.180;2022-07-30T12:05:53;40.40;25.80
423;DHT22;198;48.752;9.180;2022-07-30T12:08:20;39.20;26.50
423;DHT22;198;48.752;9.180;2022-07-30T12:10:57;40.60;26.70
423;DHT22;198;48.752;9.180;2022-07-30T12:13:24;44.10;25.40
423;DHT22;198;48.752;9.180;2022-07-30T12:15:50;46.60;22.90
423;DHT22;198;48.752;9.180;2022-07-30T12:18:27;47.70;22.40
423;DHT22;198;48.752;9.180;2022-07-30T12:21:07;45.20;21.80
423;DHT22;198;48.752;9.180;2022-07-30T12:23:35;43.80;22.50
423;DHT22;198;48.752;9.180;2022-07-30T12:26:01;42.20;23.10
423;DHT22;198;48.752;9.180;2022-07-30T12:28:29;41.20;23.70
423;DHT22;198;48.752;9.180;2022-07-30T12:30:56;39.60;24.90
423;DHT22;198;48.752;9.180;2022-07-30T12:33:23;38.50;26.60
423;DHT22;198;48.752;9.180;2022-07-30T12:35:51;39.10;25.60
423;DHT22;198;48.752;9.180;2022-07-30T12:38:18;40.80;25.70
423;DHT22;198;48.752;9.180;2022-07-30T12:40:58;42.40;23.70
423;DHT22;198;48.752;9.180;2022-07-30T12:46:10;45.70;22.10
423;DHT22;198;48.752;9.180;2022-07-30T12:48:36;47.70;22.60
423;DHT22;198;48.752;9.180;2022-07-30T12:51:08;48.90;21.20
423;DHT22;198;48.752;9.180;2022-07-30T12:53:35;49.00;20.50
423;DHT22;198;48.752;9.180;2022-07-30T12:56:24;48.60;20.10
423;DHT22;198;48.752;9.180;2022-07-30T12:58:51;47.10;20.30
423;DHT22;198;48.752;9.180;2022-07-30T13:01:16;46.00;21.30
423;DHT22;198;48.752;9.180;2022-07-30T13:03:42;46.10;22.00
423;DHT22;198;48.752;9.180;2022-07-30T13:08:55;49.20;21.20
423;DHT22;198;48.752;9.180;2022-07-30T13:11:41;49.70;20.00
423;DHT22;198;48.752;9.180;2022-07-30T13:14:07;50.00;19.70
423;DHT22;198;48.752;9.180;2022-07-30T13:16:34;50.70;20.20
423;DHT22;198;48.752;9.180;2022-07-30T13:19:01;51.30;18.80
423;DHT22;198;48.752;9.180;2022-07-30T13:21:27;51.80;19.10
423;DHT22;198;48.752;9.180;2022-07-30T13:23:53;51.30;18.90
423;DHT22;198;48.752;9.180;2022-07-30T13:26:18;51.00;18.90
423;DHT22;198;48.752;9.180;2022-07-30T13:28:44;49.40;18.70
423;DHT22;198;48.752;9.180;2022-07-30T13:31:11;47.50;20.30
423;DHT22;198;48.752;9.180;2022-07-30T13:33:37;47.00;20.30
423;DHT22;198;48.752;9.180;2022-07-30T13:36:04;47.70;21.40
423;DHT22;198;48.752;9.180;2022-07-30T13:38:30;47.40;20.40
423;DHT22;198;48.752;9.180;2022-07-30T13:40:56;47.20;20.60
423;DHT22;198;48.752;9.180;2022-07-30T13:43:22;48.10;20.20
423;DHT22;198;48.752;9.180;2022-07-30T13:45:49;48.60;20.60
423;DHT22;198;48.752;9.180;2022-07-30T13:48:15;45.80;20.80
423;DHT22;198;48.752;9.180;2022-07-30T13:50:41;43.50;21.90
423;DHT22;198;48.752;9.180;2022-07-30T13:53:07;41.60;23.10
423;DHT22;198;48.752;9.180;2022-07-30T13:55:33;39.40;24.40
423;DHT22;198;48.752;9.180;2022-07-30T13:57:59;38.80;26.00
423;DHT22;198;48.752;9.180;2022-07-30T14:00:26;38.10;25.30
423;DHT22;198;48.752;9.180;2022-07-30T14:02:57;36.60;26.20
423;DHT22;198;48.752;9.180;2022-07-30T14:05:23;35.60;27.40
423;DHT22;198;48.752;9.180;2022-07-30T14:07:48;34.60;28.30
423;DHT22;198;48.752;9.180;2022-07-30T14:10:14;34.80;30.00
423;DHT22;198;48.752;9.180;2022-07-30T14:12:40;37.20;28.80
423;DHT22;198;48.752;9.180;2022-07-30T14:15:06;38.90;26.40
423;DHT22;198;48.752;9.180;2022-07-30T14:17:31;39.20;26.30
423;DHT22;198;48.752;9.180;2022-07-30T14:19:57;38.70;25.60
423;DHT22;198;48.752;9.180;2022-07-30T14:22:22;38.20;26.50
423;DHT22;198;48.752;9.180;2022-07-30T14:24:48;37.10;26.60
423;DHT22;198;48.752;9.180;2022-07-30T14:27:14;36.00;27.90
423;DHT22;198;48.752;9.180;2022-07-30T14:29:39;35.10;29.10
423;DHT22;198;48.752;9.180;2022-07-30T14:32:05;34.50;29.60
423;DHT22;198;48.752;9.180;2022-07-30T14:34:31;35.90;29.80
423;DHT22;198;48.752;9.180;2022-07-30T14:36:56;37.90;27.30
423;DHT22;198;48.752;9.180;2022-07-30T14:39:22;39.40;26.60
423;DHT22;198;48.752;9.180;2022-07-30T14:41:48;41.00;25.90
423;DHT22;198;48.752;9.180;2022-07-30T14:44:14;40.30;25.10
423;DHT22;198;48.752;9.180;2022-07-30T14:46:40;39.00;25.80
423;DHT22;198;48.752;9.180;2022-07-30T14:49:06;37.90;27.10
423;DHT22;198;48.752;9.180;2022-07-30T14:51:33;36.80;27.00
423;DHT22;198;48.752;9.180;2022-07-30T14:53:58;35.70;29.00
423;DHT22;198;48.752;9.180;2022-07-30T14:56:24;34.70;28.60
423;DHT22;198;48.752;9.180;2022-07-30T14:58:50;33.70;30.00
423;DHT22;198;48.752;9.180;2022-07-30T15:01:15;33.30;30.20
423;DHT22;198;48.752;9.180;2022-07-30T15:03:41;33.80;30.20
423;DHT22;198;48.752;9.180;2022-07-30T15:06:07;34.90;29.60
423;DHT22;198;48.752;9.180;2022-07-30T15:08:34;36.00;27.90
423;DHT22;198;48.752;9.180;2022-07-30T15:11:00;36.70;27.50
423;DHT22;198;48.752;9.180;2022-07-30T15:13:26;38.30;27.00
423;DHT22;198;48.752;9.180;2022-07-30T15:15:51;38.10;26.00
423;DHT22;198;48.752;9.180;2022-07-30T15:18:16;37.20;26.80
423;DHT22;198;48.752;9.180;2022-07-30T15:20:42;35.80;27.20
423;DHT22;198;48.752;9.180;2022-07-30T15:23:08;34.60;28.30
423;DHT22;198;48.752;9.180;2022-07-30T15:25:33;34.60;29.00
423;DHT22;198;48.752;9.180;2022-07-30T15:27:59;35.70;28.70
423;DHT22;198;48.752;9.180;2022-07-30T15:30:24;37.20;27.80
423;DHT22;198;48.752;9.180;2022-07-30T15:32:50;38.40;26.50
423;DHT22;198;48.752;9.180;2022-07-30T15:35:16;38.40;26.60
423;DHT22;198;48.752;9.180;2022-07-30T15:37:41;37.50;26.30
423;DHT22;198;48.752;9.180;2022-07-30T15:40:07;36.30;27.20
423;DHT22;198;48.752;9.180;2022-07-30T15:42:33;35.50;28.20
423;DHT22;198;48.752;9.180;2022-07-30T15:45:01;35.50;28.60
423;DHT22;198;48.752;9.180;2022-07-30T15:47:28;36.40;28.30
423;DHT22;198;48.752;9.180;2022-07-30T15:49:53;37.30;27.20
423;DHT22;198;48.752;9.180;2022-07-30T15:52:19;37.60;27.30
423;DHT22;198;48.752;9.180;2022-07-30T15:54:44;37.90;27.20
423;DHT22;198;48.752;9.180;2022-07-30T15:57:10;37.50;27.60
423;DHT22;198;48.752;9.180;2022-07-30T15:59:35;36.50;26.90
423;DHT22;198;48.752;9.180;2022-07-30T16:02:01;36.40;28.00
423;DHT22;198;48.752;9.180;2022-07-30T16:04:27;36.90;27.60
423;DHT22;198;48.752;9.180;2022-07-30T16:06:53;37.30;27.40
423;DHT22;198;48.752;9.180;2022-07-30T16:09:22;37.30;27.30
423;DHT22;198;48.752;9.180;2022-07-30T16:11:47;37.70;27.30
423;DHT22;198;48.752;9.180;2022-07-30T16:14:14;38.70;26.60
423;DHT22;198;48.752;9.180;2022-07-30T16:16:39;39.40;25.70
423;DHT22;198;48.752;9.180;2022-07-30T16:19:05;39.50;25.30
423;DHT22;198;48.752;9.180;2022-07-30T16:21:31;38.60;26.20
423;DHT22;198;48.752;9.180;2022-07-30T16:23:57;37.70;26.10
423;DHT22;198;48.752;9.180;2022-07-30T16:26:22;36.60;26.90
423;DHT22;198;48.752;9.180;2022-07-30T16:28:48;35.40;27.80
423;DHT22;198;48.752;9.180;2022-07-30T16:31:13;34.10;28.50
423;DHT22;198;48.752;9.180;2022-07-30T16:33:39;33.10;29.40
423;DHT22;198;48.752;9.180;2022-07-30T16:36:05;32.20;30.00
423;DHT22;198;48.752;9.180;2022-07-30T16:38:30;31.40;31.40
423;DHT22;198;48.752;9.180;2022-07-30T16:40:56;30.80;32.10
423;DHT22;198;48.752;9.180;2022-07-30T16:43:21;30.40;32.80
423;DHT22;198;48.752;9.180;2022-07-30T16:45:47;30.70;33.10
423;DHT22;198;48.752;9.180;2022-07-30T16:48:13;31.50;32.50
423;DHT22;198;48.752;9.180;2022-07-30T16:50:39;32.00;31.80
423;DHT22;198;48.752;9.180;2022-07-30T16:53:06;32.80;31.60
423;DHT22;198;48.752;9.180;2022-07-30T16:55:31;33.40;31.40
423;DHT22;198;48.752;9.180;2022-07-30T16:57:57;33.80;30.00
423;DHT22;198;48.752;9.180;2022-07-30T17:00:23;34.40;29.10
423;DHT22;198;48.752;9.180;2022-07-30T17:02:49;34.30;29.30
423;DHT22;198;48.752;9.180;2022-07-30T17:05:15;34.20;29.10